Custer, SD (57730)

5:39 AM MDT on July 24, 2016 (GMT -0600)
Hay Creek Road | | Change Station

Elev 5325 ft 43.70 °N, 103.67 °W | Updated 12 seconds ago

Clear
Clear
50.9 °F
Feels Like 50.9 °F
N
0.0
Wind Variable Wind from East
Gusts 0.0 mph

Today
High -- | Low -- °F
--% Chance of Precip.
Yesterday
High -- | Low -- °F
Precip. -- in
Pressure 29.98 in
Visibility 10.0 miles
Clouds Clear
Dew Point 50 °F
Humidity 98%
Rainfall 0.07 in
Snow Depth Not available.
5:35 AM 8:25 PM
Waning Gibbous, 77% visible
METAR KCUT 241053Z AUTO 04008KT 10SM CLR 13/07 A3019 RMK AO2 RAE08 SLP151 P0001 T01330067 $
Pressure 29.98 in
Visibility 10.0 miles
Clouds Clear
Dew Point 50 °F
Humidity 98%
Rainfall 0.07 in
Snow Depth Not available.
5:35 AM 8:25 PM
Waning Gibbous, 77% visible
METAR KCUT 241053Z AUTO 04008KT 10SM CLR 13/07 A3019 RMK AO2 RAE08 SLP151 P0001 T01330067 $

10-Day Weather Forecast

Almanac

Astronomy

Jul. 24, 2016 Rise Set
Actual Time
Civil Twilight
Nautical Twilight
Astronomical Twilight
Moon
Length of Visible Light
Length of Day
Tomorrow will be .
, % of the Moon is Illuminated

Today's Extremes

State Highs State Lows

Community

WunderPhotos

Upload Photos

1,927,048 photos uploaded!

WunderBlog® & News

Nearby

Air Quality

  Air Quality AQ Index Pollutant
Not available.

Snow Depth

Station Depth Elevation

Earthquake Activity

City Distance Mag. Time & Date
Minimum magnitude displayed is 2.5.

Coastal Water Temperatures

Place Temperature

Stations

Nearby Weather Stations

Station Location Temp. Windchill Dew Point Humidity Wind Precip. Elev Updated Type
                   

Watches & Warnings

There are currently no watches in effect.